Urnieta, Spain
Current Conditions -  °F | °C
As of 2:00 PM on Thursday 27 Nov 2014 (Local Time) from LESO Reporting Station
Few Clouds Few Clouds  
Wind Chill: 66°   Ceiling: Unl
Heat Index: 66°   Visibility: 6mi
Dew Point: 46°   Wind: 8mph
Humidity: 49%   Direction: 150°SSE
Pressure: 29.47"   Gusts: NA
Location:  43.25°N, 1.99°W
Report Text: LESO 271300Z 15007KT 100V190 9999 FEW055 19/08 Q0998
Loading
Personal Weather Stations






























Interactive Weather Map New forecast layout! Learn more

10-Day Weather Forecast

Advertisements
Track Severe Weather on mobile